Terminal Aerodrome Forecast
Issued by NWS Amarillo, TX

Current Version | Previous Version | Text Only | Print | Product List | Glossary On
Versions: 1 2 3 4 5 6 7 8 9 10 11 12 13 14
000
FTUS44 KAMA 281100
TAFGUY
TAF
KGUY 281133Z 2812/2912 22013KT P6SM SCT120 BKN300
     FM281700 36012KT P6SM SCT120
     FM282000 05011KT P6SM SCT070 SCT300
     FM290300 02012KT P6SM VCTS BKN060CB OVC300
     FM290800 02008KT P6SM BKN100 OVC300=

USA.gov is the U.S. government's official web portal to all federal, state and local government web resources and services.